Time,TemperatureF,DewpointF,PressureIn,WindDirection,WindDirectionDegrees,WindSpeedMPH,WindSpeedGustMPH,Humidity,HourlyPrecipIn,Conditions,Clouds,dailyrainin,SoftwareType,DateUTC
2013-06-07 00:00:00,56.2,49.7,29.84,WSW,248,0.0,0.0,79,0.00,,,0.00,WUHU216HW,2013-06-07 07:00:00,
2013-06-07 00:01:00,56.2,49.7,29.84,WSW,248,0.0,0.0,79,0.00,,,0.00,WUHU216HW,2013-06-07 07:01:00,
2013-06-07 00:06:00,56.2,49.7,29.84,WSW,248,0.0,0.0,79,0.00,,,0.00,WUHU216HW,2013-06-07 07:06:00,
2013-06-07 01:01:00,54.9,49.1,29.83,SW,225,0.0,0.0,81,0.00,,,0.00,WUHU216HW,2013-06-07 08:01:00,
2013-06-07 01:06:00,54.7,49.0,29.83,SW,225,0.0,0.0,81,0.00,,,0.00,WUHU216HW,2013-06-07 08:06:00,
2013-06-07 01:11:00,54.7,49.3,29.83,SW,225,0.4,0.4,82,0.00,,,0.00,WUHU216HW,2013-06-07 08:11:00,
2013-06-07 01:16:00,54.7,49.3,29.84,WSW,248,0.4,0.4,82,0.00,,,0.00,WUHU216HW,2013-06-07 08:16:00,
2013-06-07 01:21:00,54.5,49.1,29.83,WSW,248,0.0,0.4,82,0.00,,,0.00,WUHU216HW,2013-06-07 08:21:00,
2013-06-07 01:26:00,54.5,49.1,29.83,WSW,248,0.7,0.7,82,0.00,,,0.00,WUHU216HW,2013-06-07 08:26:00,
2013-06-07 01:31:00,54.5,49.1,29.83,WSW,248,0.7,0.7,82,0.00,,,0.00,WUHU216HW,2013-06-07 08:31:00,
2013-06-07 01:36:00,54.5,49.1,29.83,WSW,248,0.0,0.2,82,0.00,,,0.00,WUHU216HW,2013-06-07 08:36:00,
2013-06-07 01:41:00,54.7,49.3,29.83,WNW,293,0.0,0.4,82,0.00,,,0.00,WUHU216HW,2013-06-07 08:41:00,
2013-06-07 01:47:00,54.9,49.8,29.83,West,270,0.2,0.4,83,0.00,,,0.00,WUHU216HW,2013-06-07 08:47:00,
2013-06-07 01:52:00,54.9,50.1,29.83,WSW,248,0.4,0.7,84,0.00,,,0.00,WUHU216HW,2013-06-07 08:52:00,
2013-06-07 01:57:00,55.1,50.3,29.83,SW,225,0.2,1.3,84,0.00,,,0.00,WUHU216HW,2013-06-07 08:57:00,
2013-06-07 02:02:00,55.1,50.0,29.83,WSW,248,1.1,1.3,83,0.00,,,0.00,WUHU216HW,2013-06-07 09:02:00,
2013-06-07 02:07:00,55.1,50.0,29.83,SW,225,0.0,1.1,83,0.00,,,0.00,WUHU216HW,2013-06-07 09:07:00,
2013-06-07 02:12:00,55.3,50.5,29.83,WSW,248,0.4,1.3,84,0.00,,,0.00,WUHU216HW,2013-06-07 09:12:00,
2013-06-07 02:17:00,55.3,50.5,29.83,SW,225,0.0,1.3,84,0.00,,,0.00,WUHU216HW,2013-06-07 09:17:00,
2013-06-07 02:22:00,55.4,50.6,29.83,West,270,0.9,0.9,84,0.00,,,0.00,WUHU216HW,2013-06-07 09:22:00,
2013-06-07 02:27:00,55.4,50.3,29.83,SW,225,0.4,0.9,83,0.00,,,0.00,WUHU216HW,2013-06-07 09:27:00,
2013-06-07 02:32:00,55.4,50.3,29.83,SW,225,0.7,0.7,83,0.00,,,0.00,WUHU216HW,2013-06-07 09:32:00,
2013-06-07 02:37:00,55.4,50.3,29.82,SSW,203,0.4,0.7,83,0.00,,,0.00,WUHU216HW,2013-06-07 09:37:00,
2013-06-07 02:42:00,55.4,50.3,29.82,SSW,203,0.2,0.4,83,0.00,,,0.00,WUHU216HW,2013-06-07 09:42:00,
2013-06-07 02:47:00,55.6,50.5,29.82,WSW,248,0.4,0.4,83,0.00,,,0.00,WUHU216HW,2013-06-07 09:47:00,
2013-06-07 02:52:00,55.6,50.5,29.82,WSW,248,0.4,0.7,83,0.00,,,0.00,WUHU216HW,2013-06-07 09:52:00,
2013-06-07 02:58:00,55.6,50.8,29.82,WSW,248,0.9,1.1,84,0.00,,,0.00,WUHU216HW,2013-06-07 09:58:00,
2013-06-07 03:03:00,55.8,50.7,29.81,WSW,248,0.7,1.1,83,0.00,,,0.00,WUHU216HW,2013-06-07 10:03:00,
2013-06-07 03:08:00,55.8,50.7,29.81,WSW,248,0.0,1.1,83,0.00,,,0.00,WUHU216HW,2013-06-07 10:08:00,
2013-06-07 03:13:00,55.6,50.5,29.82,SW,225,0.0,1.1,83,0.00,,,0.00,WUHU216HW,2013-06-07 10:13:00,
2013-06-07 03:18:00,55.8,50.7,29.82,SW,225,0.0,0.9,83,0.00,,,0.00,WUHU216HW,2013-06-07 10:18:00,
2013-06-07 03:23:00,55.8,50.7,29.81,SSW,203,0.4,1.1,83,0.00,,,0.00,WUHU216HW,2013-06-07 10:23:00,
2013-06-07 03:27:00,55.8,50.7,29.81,WSW,248,0.4,0.4,83,0.00,,,0.00,WUHU216HW,2013-06-07 10:27:00,
2013-06-07 03:28:00,55.8,50.7,29.81,WSW,248,0.4,1.1,83,0.00,,,0.00,WUHU216HW,2013-06-07 10:28:00,
2013-06-07 03:33:00,55.8,50.7,29.81,WSW,248,0.4,0.7,83,0.00,,,0.00,WUHU216HW,2013-06-07 10:33:00,
2013-06-07 03:38:00,55.8,50.7,29.81,WSW,248,0.9,0.9,83,0.00,,,0.00,WUHU216HW,2013-06-07 10:38:00,
2013-06-07 03:43:00,55.8,50.7,29.81,SW,225,0.2,0.9,83,0.00,,,0.00,WUHU216HW,2013-06-07 10:43:00,
2013-06-07 03:48:00,55.8,50.7,29.81,WSW,248,0.0,0.7,83,0.00,,,0.00,WUHU216HW,2013-06-07 10:48:00,
2013-06-07 03:53:00,56.0,50.9,29.81,WSW,248,0.0,0.4,83,0.00,,,0.00,WUHU216HW,2013-06-07 10:53:00,
2013-06-07 03:58:00,56.0,50.9,29.81,WSW,248,0.0,0.2,83,0.00,,,0.00,WUHU216HW,2013-06-07 10:58:00,
2013-06-07 04:03:00,56.0,50.9,29.81,WSW,248,0.2,0.2,83,0.00,,,0.00,WUHU216HW,2013-06-07 11:03:00,
2013-06-07 04:08:00,56.0,51.1,29.81,WSW,248,0.0,0.2,84,0.00,,,0.00,WUHU216HW,2013-06-07 11:08:00,
2013-06-07 04:13:00,56.0,50.9,29.81,SW,225,0.0,0.4,83,0.00,,,0.00,WUHU216HW,2013-06-07 11:13:00,
2013-06-07 04:18:00,56.2,51.0,29.81,SW,225,0.0,0.4,83,0.00,,,0.00,WUHU216HW,2013-06-07 11:18:00,
2013-06-07 04:23:00,56.2,51.0,29.81,SW,225,0.0,0.0,83,0.00,,,0.00,WUHU216HW,2013-06-07 11:23:00,
2013-06-07 04:29:00,56.2,51.0,29.80,SW,225,0.0,0.0,83,0.00,,,0.00,WUHU216HW,2013-06-07 11:29:00,
2013-06-07 04:34:00,56.2,51.0,29.80,SW,225,0.0,0.4,83,0.00,,,0.00,WUHU216HW,2013-06-07 11:34:00,
2013-06-07 04:39:00,56.2,51.0,29.81,SSW,203,0.4,0.4,83,0.00,,,0.00,WUHU216HW,2013-06-07 11:39:00,
2013-06-07 04:44:00,56.3,51.2,29.80,WSW,248,0.0,0.4,83,0.00,,,0.00,WUHU216HW,2013-06-07 11:44:00,
2013-06-07 04:49:00,56.5,51.4,29.80,WSW,248,0.4,0.4,83,0.00,,,0.00,WUHU216HW,2013-06-07 11:49:00,
2013-06-07 04:54:00,56.5,51.4,29.80,SW,225,0.0,0.9,83,0.00,,,0.00,WUHU216HW,2013-06-07 11:54:00,
2013-06-07 04:59:00,56.5,52.0,29.80,SW,225,0.4,0.9,85,0.00,,,0.00,WUHU216HW,2013-06-07 11:59:00,
2013-06-07 05:04:00,56.5,51.7,29.80,SSE,158,0.7,2.0,84,0.00,,,0.00,WUHU216HW,2013-06-07 12:04:00,
2013-06-07 05:09:00,56.7,51.8,29.80,SSW,203,0.2,2.0,84,0.00,,,0.00,WUHU216HW,2013-06-07 12:09:00,
2013-06-07 05:14:00,56.7,51.8,29.81,NW,315,0.4,1.1,84,0.00,,,0.00,WUHU216HW,2013-06-07 12:14:00,
2013-06-07 05:19:00,56.7,51.8,29.81,SE,135,3.4,3.4,84,0.00,,,0.00,WUHU216HW,2013-06-07 12:19:00,
2013-06-07 05:24:00,56.9,52.0,29.81,SSE,158,0.2,3.4,84,0.00,,,0.00,WUHU216HW,2013-06-07 12:24:00,
2013-06-07 05:29:00,56.9,52.0,29.81,SSE,158,0.0,2.7,84,0.00,,,0.00,WUHU216HW,2013-06-07 12:29:00,
2013-06-07 05:34:00,56.9,52.0,29.81,SE,135,0.0,0.9,84,0.00,,,0.00,WUHU216HW,2013-06-07 12:34:00,
2013-06-07 05:39:00,56.9,52.0,29.81,South,180,0.0,0.9,84,0.00,,,0.00,WUHU216HW,2013-06-07 12:39:00,
2013-06-07 05:44:00,56.9,52.0,29.81,SW,225,0.7,0.7,84,0.00,,,0.00,WUHU216HW,2013-06-07 12:44:00,
2013-06-07 05:49:00,56.9,52.0,29.81,SSE,158,0.9,1.6,84,0.00,,,0.00,WUHU216HW,2013-06-07 12:49:00,
2013-06-07 05:54:00,56.9,52.0,29.81,SE,135,0.0,1.6,84,0.00,,,0.00,WUHU216HW,2013-06-07 12:54:00,
2013-06-07 06:00:00,56.9,52.0,29.81,ESE,113,1.1,1.3,84,0.00,,,0.00,WUHU216HW,2013-06-07 13:00:00,
2013-06-07 06:05:00,57.1,52.2,29.81,ESE,113,0.9,1.8,84,0.00,,,0.00,WUHU216HW,2013-06-07 13:05:00,
2013-06-07 06:10:00,57.1,52.2,29.81,SE,135,1.1,1.8,84,0.00,,,0.00,WUHU216HW,2013-06-07 13:10:00,
2013-06-07 06:15:00,57.1,52.2,29.81,SE,135,1.6,1.6,84,0.00,,,0.00,WUHU216HW,2013-06-07 13:15:00,
2013-06-07 06:20:00,57.1,51.9,29.81,SE,135,1.8,1.8,83,0.00,,,0.00,WUHU216HW,2013-06-07 13:20:00,
2013-06-07 06:25:00,57.2,52.1,29.81,SE,135,0.0,1.8,83,0.00,,,0.00,WUHU216HW,2013-06-07 13:25:00,
2013-06-07 06:30:00,57.2,52.1,29.81,SSW,203,0.7,1.8,83,0.00,,,0.00,WUHU216HW,2013-06-07 13:30:00,
2013-06-07 06:35:00,57.2,52.1,29.81,ESE,113,0.0,1.1,83,0.00,,,0.00,WUHU216HW,2013-06-07 13:35:00,
2013-06-07 06:40:00,57.2,52.1,29.81,SSW,203,0.4,1.1,83,0.00,,,0.00,WUHU216HW,2013-06-07 13:40:00,
2013-06-07 06:45:00,57.2,52.1,29.81,SSE,158,0.2,1.1,83,0.00,,,0.00,WUHU216HW,2013-06-07 13:45:00,
2013-06-07 06:50:00,57.2,52.1,29.81,SE,135,0.7,1.1,83,0.00,,,0.00,WUHU216HW,2013-06-07 13:50:00,
2013-06-07 06:55:00,57.2,52.1,29.81,SSE,158,1.1,1.1,83,0.00,,,0.00,WUHU216HW,2013-06-07 13:55:00,
2013-06-07 07:00:00,57.2,52.1,29.81,SSW,203,0.4,1.8,83,0.00,,,0.00,WUHU216HW,2013-06-07 14:00:00,
2013-06-07 07:05:00,57.4,52.3,29.81,ESE,113,1.3,2.0,83,0.00,,,0.00,WUHU216HW,2013-06-07 14:05:00,
2013-06-07 07:10:00,57.4,52.3,29.81,ENE,68,0.2,2.0,83,0.00,,,0.00,WUHU216HW,2013-06-07 14:10:00,
2013-06-07 07:15:00,57.8,52.9,29.81,ESE,113,1.3,1.3,84,0.00,,,0.00,WUHU216HW,2013-06-07 14:15:00,
2013-06-07 07:20:00,58.0,53.1,29.81,SE,135,0.7,1.3,84,0.00,,,0.00,WUHU216HW,2013-06-07 14:20:00,
2013-06-07 07:25:00,58.3,53.2,29.81,ESE,113,1.6,2.5,83,0.00,,,0.00,WUHU216HW,2013-06-07 14:25:00,
2013-06-07 07:30:00,58.5,53.4,29.81,SE,135,0.7,2.5,83,0.00,,,0.00,WUHU216HW,2013-06-07 14:30:00,
2013-06-07 07:35:00,58.7,53.6,29.81,East,90,1.1,1.8,83,0.00,,,0.00,WUHU216HW,2013-06-07 14:35:00,
2013-06-07 07:41:00,58.9,53.4,29.81,East,90,0.0,2.0,82,0.00,,,0.00,WUHU216HW,2013-06-07 14:41:00,
2013-06-07 07:46:00,59.2,53.7,29.81,ESE,113,0.9,2.5,82,0.00,,,0.00,WUHU216HW,2013-06-07 14:46:00,
2013-06-07 07:51:00,59.4,53.9,29.81,SE,135,0.4,2.5,82,0.00,,,0.00,WUHU216HW,2013-06-07 14:51:00,
2013-06-07 07:56:00,59.6,53.8,29.81,ESE,113,2.5,2.5,81,0.00,,,0.00,WUHU216HW,2013-06-07 14:56:00,
2013-06-07 08:01:00,59.8,54.0,29.81,SE,135,3.4,3.4,81,0.00,,,0.00,WUHU216HW,2013-06-07 15:01:00,
2013-06-07 08:06:00,60.1,54.4,29.81,ESE,113,0.9,3.4,81,0.00,,,0.00,WUHU216HW,2013-06-07 15:06:00,
2013-06-07 08:11:00,60.5,54.4,29.81,SSW,203,0.4,2.0,80,0.00,,,0.00,WUHU216HW,2013-06-07 15:11:00,
2013-06-07 08:17:00,60.7,54.5,29.81,WSW,248,1.1,1.8,80,0.00,,,0.00,WUHU216HW,2013-06-07 15:17:00,
2013-06-07 08:22:00,61.0,54.6,29.81,ESE,113,1.8,3.4,79,0.00,,,0.00,WUHU216HW,2013-06-07 15:22:00,
2013-06-07 08:27:00,61.6,55.0,29.81,SW,225,0.4,4.5,79,0.00,,,0.00,WUHU216HW,2013-06-07 15:27:00,
2013-06-07 08:32:00,61.7,55.2,29.81,South,180,2.2,4.5,79,0.00,,,0.00,WUHU216HW,2013-06-07 15:32:00,
2013-06-07 08:37:00,62.1,55.2,29.81,SE,135,0.9,2.9,78,0.00,,,0.00,WUHU216HW,2013-06-07 15:37:00,
2013-06-07 08:42:00,62.3,54.5,29.81,WSW,248,3.4,3.4,76,0.00,,,0.00,WUHU216HW,2013-06-07 15:42:00,
2013-06-07 08:47:00,62.3,54.9,29.81,SE,135,0.7,3.4,77,0.00,,,0.00,WUHU216HW,2013-06-07 15:47:00,
2013-06-07 08:52:00,62.6,55.3,29.81,SSE,158,1.3,2.0,77,0.00,,,0.00,WUHU216HW,2013-06-07 15:52:00,
2013-06-07 08:57:00,63.2,55.4,29.81,ESE,113,0.0,2.0,76,0.00,,,0.00,WUHU216HW,2013-06-07 15:57:00,
2013-06-07 09:02:00,63.7,56.0,29.81,WNW,293,2.2,2.5,76,0.00,,,0.00,WUHU216HW,2013-06-07 16:02:00,
2013-06-07 09:07:00,64.1,56.3,29.81,ESE,113,1.8,2.5,76,0.00,,,0.00,WUHU216HW,2013-06-07 16:07:00,
2013-06-07 09:12:00,64.4,56.3,29.81,ESE,113,0.4,1.8,75,0.00,,,0.00,WUHU216HW,2013-06-07 16:12:00,
2013-06-07 09:17:00,64.8,56.0,29.81,NW,315,1.6,1.6,73,0.00,,,0.00,WUHU216HW,2013-06-07 16:17:00,
2013-06-07 09:22:00,64.8,56.4,29.81,SSW,203,0.4,1.6,74,0.00,,,0.00,WUHU216HW,2013-06-07 16:22:00,
2013-06-07 09:27:00,65.3,56.4,29.81,WSW,248,0.7,1.6,73,0.00,,,0.00,WUHU216HW,2013-06-07 16:27:00,
2013-06-07 09:32:00,65.7,56.8,29.81,SSW,203,0.4,1.1,73,0.00,,,0.00,WUHU216HW,2013-06-07 16:32:00,
2013-06-07 09:37:00,65.7,56.8,29.81,WNW,293,1.3,1.3,73,0.00,,,0.00,WUHU216HW,2013-06-07 16:37:00,
2013-06-07 09:42:00,66.1,56.8,29.81,WNW,293,1.1,2.2,72,0.00,,,0.00,WUHU216HW,2013-06-07 16:42:00,
2013-06-07 09:47:00,66.4,56.7,29.80,NW,315,0.2,2.2,71,0.00,,,0.00,WUHU216HW,2013-06-07 16:47:00,
2013-06-07 09:52:00,66.6,56.9,29.80,NW,315,0.4,0.7,71,0.00,,,0.00,WUHU216HW,2013-06-07 16:52:00,
2013-06-07 09:57:00,67.1,57.1,29.81,West,270,1.1,2.0,70,0.00,,,0.00,WUHU216HW,2013-06-07 16:57:00,
2013-06-07 10:03:00,67.3,57.2,29.80,SSE,158,1.1,2.0,70,0.00,,,0.00,WUHU216HW,2013-06-07 17:03:00,
2013-06-07 10:08:00,68.0,58.0,29.80,SSE,158,0.4,2.2,70,0.00,,,0.00,WUHU216HW,2013-06-07 17:08:00,
2013-06-07 10:13:00,68.8,58.1,29.80,SW,225,1.1,2.2,69,0.00,,,0.00,WUHU216HW,2013-06-07 17:13:00,
2013-06-07 10:18:00,69.3,58.2,29.80,SSW,203,0.0,1.8,68,0.00,,,0.00,WUHU216HW,2013-06-07 17:18:00,
2013-06-07 10:23:00,69.3,57.0,29.80,NW,315,0.4,1.8,65,0.00,,,0.00,WUHU216HW,2013-06-07 17:23:00,
2013-06-07 10:28:00,68.4,56.2,29.80,NW,315,0.4,2.7,65,0.00,,,0.00,WUHU216HW,2013-06-07 17:28:00,
2013-06-07 10:33:00,68.6,57.2,29.80,WSW,248,0.9,2.7,67,0.00,,,0.00,WUHU216HW,2013-06-07 17:33:00,
2013-06-07 10:38:00,69.1,57.7,29.79,WNW,293,0.4,1.8,67,0.00,,,0.00,WUHU216HW,2013-06-07 17:38:00,
2013-06-07 10:43:00,69.5,57.2,29.80,NNW,338,0.7,1.8,65,0.00,,,0.00,WUHU216HW,2013-06-07 17:43:00,
2013-06-07 10:48:00,70.0,57.7,29.80,WNW,293,0.9,2.0,65,0.00,,,0.00,WUHU216HW,2013-06-07 17:48:00,
2013-06-07 10:53:00,70.7,58.0,29.79,West,270,0.4,2.0,64,0.00,,,0.00,WUHU216HW,2013-06-07 17:53:00,
2013-06-07 10:58:00,71.3,59.3,29.79,ESE,113,1.1,1.8,66,0.00,,,0.00,WUHU216HW,2013-06-07 17:58:00,
2013-06-07 11:03:00,72.2,60.2,29.79,SW,225,1.3,2.2,66,0.00,,,0.00,WUHU216HW,2013-06-07 18:03:00,
2013-06-07 11:08:00,72.9,58.7,29.79,WSW,248,1.6,2.2,61,0.00,,,0.00,WUHU216HW,2013-06-07 18:08:00,
2013-06-07 11:13:00,73.1,59.2,29.79,WSW,248,0.7,2.7,62,0.00,,,0.00,WUHU216HW,2013-06-07 18:13:00,
2013-06-07 11:18:00,73.4,59.1,29.79,WNW,293,1.8,2.7,61,0.00,,,0.00,WUHU216HW,2013-06-07 18:18:00,
2013-06-07 11:24:00,73.6,59.3,29.79,SW,225,0.0,2.5,61,0.00,,,0.00,WUHU216HW,2013-06-07 18:24:00,
2013-06-07 11:29:00,73.8,59.5,29.79,WSW,248,1.1,1.8,61,0.00,,,0.00,WUHU216HW,2013-06-07 18:29:00,
2013-06-07 11:34:00,74.2,59.4,29.79,WSW,248,1.1,1.8,60,0.00,,,0.00,WUHU216HW,2013-06-07 18:34:00,
2013-06-07 11:39:00,74.2,59.4,29.79,WSW,248,0.7,1.6,60,0.00,,,0.00,WUHU216HW,2013-06-07 18:39:00,
2013-06-07 11:44:00,74.9,60.1,29.78,West,270,1.8,1.8,60,0.00,,,0.00,WUHU216HW,2013-06-07 18:44:00,
2013-06-07 11:50:00,75.8,59.9,29.78,NW,315,1.8,2.9,58,0.00,,,0.00,WUHU216HW,2013-06-07 18:50:00,
2013-06-07 11:55:00,76.3,60.9,29.78,SE,135,0.4,3.4,59,0.00,,,0.00,WUHU216HW,2013-06-07 18:55:00,
2013-06-07 12:00:00,76.9,60.4,29.78,NNW,338,0.0,3.4,57,0.00,,,0.00,WUHU216HW,2013-06-07 19:00:00,
2013-06-07 12:05:00,77.0,60.6,29.78,SW,225,2.5,2.5,57,0.00,,,0.00,WUHU216HW,2013-06-07 19:05:00,
2013-06-07 12:10:00,77.8,61.8,29.78,SE,135,0.9,2.5,58,0.00,,,0.00,WUHU216HW,2013-06-07 19:10:00,
2013-06-07 12:15:00,78.8,62.4,29.77,NNW,338,0.4,2.7,57,0.00,,,0.00,WUHU216HW,2013-06-07 19:15:00,
2013-06-07 12:20:00,78.8,59.8,29.78,WSW,248,2.7,2.7,52,0.00,,,0.00,WUHU216HW,2013-06-07 19:20:00,
2013-06-07 12:25:00,78.5,59.4,29.77,WNW,293,2.2,2.7,52,0.00,,,0.00,WUHU216HW,2013-06-07 19:25:00,
2013-06-07 12:30:00,78.7,60.6,29.77,South,180,1.1,2.2,54,0.00,,,0.00,WUHU216HW,2013-06-07 19:30:00,
2013-06-07 12:35:00,78.7,60.6,29.77,SSW,203,0.7,2.5,54,0.00,,,0.00,WUHU216HW,2013-06-07 19:35:00,
2013-06-07 12:41:00,79.4,61.3,29.77,NW,315,0.4,2.5,54,0.00,,,0.00,WUHU216HW,2013-06-07 19:41:00,
2013-06-07 12:46:00,79.7,60.6,29.77,NW,315,1.3,2.5,52,0.00,,,0.00,WUHU216HW,2013-06-07 19:46:00,
2013-06-07 12:51:00,79.6,60.4,29.77,WNW,293,2.0,2.0,52,0.00,,,0.00,WUHU216HW,2013-06-07 19:51:00,
2013-06-07 12:56:00,80.5,61.2,29.76,SW,225,3.4,3.4,52,0.00,,,0.00,WUHU216HW,2013-06-07 19:56:00,
2013-06-07 13:01:00,81.4,60.9,29.76,SW,225,1.8,3.4,50,0.00,,,0.00,WUHU216HW,2013-06-07 20:01:00,
2013-06-07 13:06:00,81.9,61.5,29.76,South,180,1.1,2.5,50,0.00,,,0.00,WUHU216HW,2013-06-07 20:06:00,
2013-06-07 13:11:00,81.7,61.3,29.76,NNW,338,1.3,1.8,50,0.00,,,0.00,WUHU216HW,2013-06-07 20:11:00,
2013-06-07 13:17:00,81.7,61.3,29.76,NW,315,1.6,1.8,50,0.00,,,0.00,WUHU216HW,2013-06-07 20:17:00,
2013-06-07 13:22:00,81.7,61.3,29.75,NW,315,1.1,3.1,50,0.00,,,0.00,WUHU216HW,2013-06-07 20:22:00,
2013-06-07 13:27:00,81.9,60.9,29.75,WSW,248,1.8,3.4,49,0.00,,,0.00,WUHU216HW,2013-06-07 20:27:00,
2013-06-07 13:32:00,82.6,61.5,29.75,WSW,248,0.9,3.4,49,0.00,,,0.00,WUHU216HW,2013-06-07 20:32:00,
2013-06-07 13:37:00,83.2,62.6,29.74,North,0,0.4,2.0,50,0.00,,,0.00,WUHU216HW,2013-06-07 20:37:00,
2013-06-07 13:42:00,83.5,61.1,29.74,WNW,293,1.8,2.0,47,0.00,,,0.00,WUHU216HW,2013-06-07 20:42:00,
2013-06-07 13:47:00,84.2,63.1,29.74,NW,315,3.1,3.1,49,0.00,,,0.00,WUHU216HW,2013-06-07 20:47:00,
2013-06-07 13:52:00,83.9,62.7,29.74,NNW,338,1.1,3.1,49,0.00,,,0.00,WUHU216HW,2013-06-07 20:52:00,
2013-06-07 13:57:00,83.5,61.7,29.74,SW,225,1.3,2.5,48,0.00,,,0.00,WUHU216HW,2013-06-07 20:57:00,
2013-06-07 14:02:00,84.6,62.2,29.74,NNW,338,1.8,3.4,47,0.00,,,0.00,WUHU216HW,2013-06-07 21:02:00,
2013-06-07 14:07:00,85.3,64.1,29.74,WSW,248,2.0,3.4,49,0.00,,,0.00,WUHU216HW,2013-06-07 21:07:00,
2013-06-07 14:12:00,86.2,63.0,29.73,NW,315,1.6,2.0,46,0.00,,,0.00,WUHU216HW,2013-06-07 21:12:00,
2013-06-07 14:17:00,85.9,62.6,29.73,North,0,2.5,2.5,46,0.00,,,0.00,WUHU216HW,2013-06-07 21:17:00,
2013-06-07 14:22:00,86.4,63.8,29.73,NW,315,1.8,2.9,47,0.00,,,0.00,WUHU216HW,2013-06-07 21:22:00,
2013-06-07 14:27:00,86.9,63.0,29.73,WSW,248,2.0,2.9,45,0.00,,,0.00,WUHU216HW,2013-06-07 21:27:00,
2013-06-07 14:33:00,87.5,64.1,29.72,SW,225,2.9,3.4,46,0.00,,,0.00,WUHU216HW,2013-06-07 21:33:00,
2013-06-07 14:38:00,88.2,64.7,29.72,West,270,1.1,3.4,46,0.00,,,0.00,WUHU216HW,2013-06-07 21:38:00,
2013-06-07 14:43:00,88.7,63.9,29.72,SW,225,1.8,2.2,44,0.00,,,0.00,WUHU216HW,2013-06-07 21:43:00,
2013-06-07 14:48:00,88.4,63.0,29.72,NNW,338,1.8,3.4,43,0.00,,,0.00,WUHU216HW,2013-06-07 21:48:00,
2013-06-07 14:54:00,87.8,63.8,29.71,WNW,293,1.1,3.4,45,0.00,,,0.00,WUHU216HW,2013-06-07 21:54:00,
2013-06-07 14:59:00,88.2,63.5,29.71,North,0,1.3,2.5,44,0.00,,,0.00,WUHU216HW,2013-06-07 21:59:00,
2013-06-07 15:04:00,87.7,63.0,29.71,SW,225,0.4,1.6,44,0.00,,,0.00,WUHU216HW,2013-06-07 22:04:00,
2013-06-07 15:09:00,88.6,63.2,29.71,NNW,338,1.6,1.8,43,0.00,,,0.00,WUHU216HW,2013-06-07 22:09:00,
2013-06-07 15:14:00,88.6,63.2,29.71,NW,315,1.3,1.8,43,0.00,,,0.00,WUHU216HW,2013-06-07 22:14:00,
2013-06-07 15:19:00,89.1,63.6,29.71,West,270,1.1,2.9,43,0.00,,,0.00,WUHU216HW,2013-06-07 22:19:00,
2013-06-07 15:24:00,90.0,63.7,29.71,NNW,338,2.5,2.9,42,0.00,,,0.00,WUHU216HW,2013-06-07 22:24:00,
2013-06-07 15:29:00,89.8,64.2,29.71,SW,225,1.1,2.5,43,0.00,,,0.00,WUHU216HW,2013-06-07 22:29:00,
2013-06-07 15:34:00,90.9,63.9,29.71,WSW,248,1.3,2.5,41,0.00,,,0.00,WUHU216HW,2013-06-07 22:34:00,
2013-06-07 15:39:00,91.4,63.7,29.71,NW,315,1.8,2.5,40,0.00,,,0.00,WUHU216HW,2013-06-07 22:39:00,
2013-06-07 15:44:00,90.5,62.9,29.71,SW,225,1.1,2.2,40,0.00,,,0.00,WUHU216HW,2013-06-07 22:44:00,
2013-06-07 15:49:00,90.4,62.7,29.71,NNW,338,0.4,1.3,40,0.00,,,0.00,WUHU216HW,2013-06-07 22:49:00,
2013-06-07 15:54:00,90.5,63.5,29.71,WSW,248,1.8,2.9,41,0.00,,,0.00,WUHU216HW,2013-06-07 22:54:00,
2013-06-07 16:00:00,92.3,63.7,29.70,WNW,293,3.4,3.4,39,0.00,,,0.00,WUHU216HW,2013-06-07 23:00:00,
2013-06-07 16:05:00,92.7,63.3,29.70,WSW,248,1.1,3.4,38,0.00,,,0.00,WUHU216HW,2013-06-07 23:05:00,
2013-06-07 16:10:00,93.1,63.5,29.70,SW,225,1.6,3.4,38,0.00,,,0.00,WUHU216HW,2013-06-07 23:10:00,
2013-06-07 16:15:00,94.9,65.2,29.70,WSW,248,2.2,3.4,38,0.00,,,0.00,WUHU216HW,2013-06-07 23:15:00,
2013-06-07 16:21:00,97.2,65.6,29.69,NW,315,1.6,3.4,36,0.00,,,0.00,WUHU216HW,2013-06-07 23:21:00,
2013-06-07 16:26:00,98.8,66.3,29.69,WSW,248,2.0,3.6,35,0.00,,,0.00,WUHU216HW,2013-06-07 23:26:00,
2013-06-07 16:31:00,99.5,64.4,29.69,WNW,293,1.1,3.6,32,0.00,,,0.00,WUHU216HW,2013-06-07 23:31:00,
2013-06-07 16:37:00,99.5,64.4,29.69,WNW,293,2.5,2.5,32,0.00,,,0.00,WUHU216HW,2013-06-07 23:37:00,
2013-06-07 16:42:00,99.9,63.9,29.69,West,270,2.9,2.9,31,0.00,,,0.00,WUHU216HW,2013-06-07 23:42:00,
2013-06-07 16:48:00,100.3,65.1,29.69,WSW,248,1.3,2.9,32,0.00,,,0.00,WUHU216HW,2013-06-07 23:48:00,
2013-06-07 16:53:00,99.7,62.9,29.69,WNW,293,1.6,2.2,30,0.00,,,0.00,WUHU216HW,2013-06-07 23:53:00,
2013-06-07 16:58:00,99.0,64.7,29.68,SSW,203,3.4,3.6,33,0.00,,,0.00,WUHU216HW,2013-06-07 23:58:00,
2013-06-07 17:03:00,102.2,66.7,29.68,West,270,0.9,3.6,32,0.00,,,0.00,WUHU216HW,2013-06-08 00:03:00,
2013-06-07 17:08:00,103.3,66.0,29.68,West,270,2.2,2.7,30,0.00,,,0.00,WUHU216HW,2013-06-08 00:08:00,
2013-06-07 17:13:00,103.9,65.3,29.68,WNW,293,2.7,2.7,29,0.00,,,0.00,WUHU216HW,2013-06-08 00:13:00,
2013-06-07 17:18:00,104.2,66.8,29.68,WNW,293,0.9,2.7,30,0.00,,,0.00,WUHU216HW,2013-06-08 00:18:00,
2013-06-07 17:23:00,104.0,67.4,29.68,WNW,293,1.3,2.5,31,0.00,,,0.00,WUHU216HW,2013-06-08 00:23:00,
2013-06-07 17:29:00,104.9,63.9,29.68,NW,315,0.4,1.8,27,0.00,,,0.00,WUHU216HW,2013-06-08 00:29:00,
2013-06-07 17:34:00,103.7,65.2,29.68,NW,315,0.4,2.0,29,0.00,,,0.00,WUHU216HW,2013-06-08 00:34:00,
2013-06-07 17:39:00,103.3,64.8,29.68,SW,225,3.4,3.4,29,0.00,,,0.00,WUHU216HW,2013-06-08 00:39:00,
2013-06-07 17:44:00,104.0,66.6,29.68,West,270,0.7,3.4,30,0.00,,,0.00,WUHU216HW,2013-06-08 00:44:00,
2013-06-07 17:50:00,105.3,66.4,29.68,WNW,293,1.8,2.2,29,0.00,,,0.00,WUHU216HW,2013-06-08 00:50:00,
2013-06-07 17:55:00,104.4,63.5,29.68,NW,315,1.8,2.0,27,0.00,,,0.00,WUHU216HW,2013-06-08 00:55:00,
2013-06-07 18:00:00,104.0,65.4,29.67,West,270,2.5,4.7,29,0.00,,,0.00,WUHU216HW,2013-06-08 01:00:00,
2013-06-07 18:05:00,103.0,62.2,29.67,West,270,1.3,4.7,27,0.00,,,0.00,WUHU216HW,2013-06-08 01:05:00,
2013-06-07 18:10:00,103.3,66.0,29.67,WNW,293,0.0,2.2,30,0.00,,,0.00,WUHU216HW,2013-06-08 01:10:00,
2013-06-07 18:16:00,104.9,66.2,29.67,WNW,293,1.8,2.2,29,0.00,,,0.00,WUHU216HW,2013-06-08 01:16:00,
2013-06-07 18:21:00,103.9,65.3,29.67,West,270,0.4,1.8,29,0.00,,,0.00,WUHU216HW,2013-06-08 01:21:00,
2013-06-07 18:26:00,100.6,63.7,29.67,WSW,248,1.1,2.5,30,0.00,,,0.00,WUHU216HW,2013-06-08 01:26:00,
2013-06-07 18:31:00,99.7,63.7,29.67,WSW,248,0.9,2.5,31,0.00,,,0.00,WUHU216HW,2013-06-08 01:31:00,
2013-06-07 18:36:00,99.2,63.3,29.67,WSW,248,1.3,3.1,31,0.00,,,0.00,WUHU216HW,2013-06-08 01:36:00,
2013-06-07 18:41:00,98.3,64.1,29.67,WSW,248,1.8,3.1,33,0.00,,,0.00,WUHU216HW,2013-06-08 01:41:00,
2013-06-07 18:46:00,96.8,62.8,29.67,WSW,248,2.0,2.0,33,0.00,,,0.00,WUHU216HW,2013-06-08 01:46:00,
2013-06-07 18:51:00,95.2,62.3,29.67,WNW,293,2.0,2.0,34,0.00,,,0.00,WUHU216HW,2013-06-08 01:51:00,
2013-06-07 18:56:00,94.0,61.9,29.67,South,180,0.4,2.0,35,0.00,,,0.00,WUHU216HW,2013-06-08 01:56:00,
2013-06-07 19:01:00,94.3,62.3,29.67,West,270,1.1,2.0,35,0.00,,,0.00,WUHU216HW,2013-06-08 02:01:00,
2013-06-07 19:06:00,94.0,61.9,29.67,WSW,248,0.7,2.0,35,0.00,,,0.00,WUHU216HW,2013-06-08 02:06:00,
2013-06-07 19:11:00,93.2,62.1,29.67,SW,225,1.3,1.8,36,0.00,,,0.00,WUHU216HW,2013-06-08 02:11:00,
2013-06-07 19:16:00,92.5,61.5,29.67,WSW,248,0.7,1.8,36,0.00,,,0.00,WUHU216HW,2013-06-08 02:16:00,
2013-06-07 19:22:00,92.3,62.9,29.67,WSW,248,1.1,1.6,38,0.00,,,0.00,WUHU216HW,2013-06-08 02:22:00,
2013-06-07 19:27:00,92.5,61.5,29.67,SW,225,1.8,1.8,36,0.00,,,0.00,WUHU216HW,2013-06-08 02:27:00,
2013-06-07 19:32:00,92.2,61.2,29.67,SW,225,0.7,1.8,36,0.00,,,0.00,WUHU216HW,2013-06-08 02:32:00,
2013-06-07 19:37:00,91.4,61.4,29.67,SW,225,0.7,1.1,37,0.00,,,0.00,WUHU216HW,2013-06-08 02:37:00,
2013-06-07 19:42:00,90.4,61.2,29.67,SW,225,0.4,1.1,38,0.00,,,0.00,WUHU216HW,2013-06-08 02:42:00,
2013-06-07 19:47:00,89.3,60.2,29.67,WSW,248,0.7,1.1,38,0.00,,,0.00,WUHU216HW,2013-06-08 02:47:00,
2013-06-07 19:52:00,88.7,60.6,29.67,SSW,203,1.6,1.6,39,0.00,,,0.00,WUHU216HW,2013-06-08 02:52:00,
2013-06-07 19:57:00,88.4,60.3,29.67,WSW,248,1.3,1.6,39,0.00,,,0.00,WUHU216HW,2013-06-08 02:57:00,
2013-06-07 20:02:00,88.2,60.1,29.67,WSW,248,0.0,1.3,39,0.00,,,0.00,WUHU216HW,2013-06-08 03:02:00,
2013-06-07 20:07:00,87.3,60.2,29.67,West,270,0.2,1.1,40,0.00,,,0.00,WUHU216HW,2013-06-08 03:07:00,
2013-06-07 20:13:00,86.6,58.8,29.67,West,270,0.0,1.1,39,0.00,,,0.00,WUHU216HW,2013-06-08 03:13:00,
2013-06-07 20:18:00,86.0,59.7,29.67,West,270,0.0,0.4,41,0.00,,,0.00,WUHU216HW,2013-06-08 03:18:00,
2013-06-07 20:23:00,85.7,58.7,29.67,West,270,0.0,0.0,40,0.00,,,0.00,WUHU216HW,2013-06-08 03:23:00,
2013-06-07 20:28:00,85.3,59.1,29.67,West,270,0.0,0.0,41,0.00,,,0.00,WUHU216HW,2013-06-08 03:28:00,
2013-06-07 20:33:00,85.0,58.7,29.67,West,270,0.0,0.2,41,0.00,,,0.00,WUHU216HW,2013-06-08 03:33:00,
2013-06-07 20:38:00,84.2,58.7,29.67,West,270,0.0,0.2,42,0.00,,,0.00,WUHU216HW,2013-06-08 03:38:00,
2013-06-07 20:43:00,83.9,58.3,29.67,West,270,0.0,0.0,42,0.00,,,0.00,WUHU216HW,2013-06-08 03:43:00,
2013-06-07 20:48:00,83.5,58.1,29.67,SSE,158,0.4,0.4,42,0.00,,,0.00,WUHU216HW,2013-06-08 03:48:00,
2013-06-07 20:54:00,82.8,58.6,29.67,SSE,158,0.0,0.4,44,0.00,,,0.00,WUHU216HW,2013-06-08 03:54:00,
2013-06-07 20:59:00,82.3,58.1,29.67,SSE,158,0.0,0.0,44,0.00,,,0.00,WUHU216HW,2013-06-08 03:59:00,
2013-06-07 21:01:00,82.1,58.0,29.67,SSE,158,0.0,0.0,44,0.00,,,0.00,WUHU216HW,2013-06-08 04:01:00,
2013-06-07 21:02:00,81.9,58.4,29.67,SSE,158,0.0,0.0,45,0.00,,,0.00,WUHU216HW,2013-06-08 04:02:00,
2013-06-07 21:07:00,81.5,58.1,29.67,SSE,158,0.0,0.0,45,0.00,,,0.00,WUHU216HW,2013-06-08 04:07:00,
2013-06-07 21:12:00,81.0,57.6,29.67,SSE,158,0.0,0.0,45,0.00,,,0.00,WUHU216HW,2013-06-08 04:12:00,
2013-06-07 21:17:00,80.5,57.7,29.68,SSE,158,0.0,0.0,46,0.00,,,0.00,WUHU216HW,2013-06-08 04:17:00,
2013-06-07 21:22:00,79.9,57.8,29.68,SSE,158,0.0,0.0,47,0.00,,,0.00,WUHU216HW,2013-06-08 04:22:00,
2013-06-07 21:27:00,79.2,57.2,29.68,SSE,158,0.0,0.0,47,0.00,,,0.00,WUHU216HW,2013-06-08 04:27:00,
2013-06-07 21:32:00,78.8,57.4,29.68,SSE,158,0.0,0.0,48,0.00,,,0.00,WUHU216HW,2013-06-08 04:32:00,
2013-06-07 21:37:00,78.7,57.3,29.68,SSE,158,0.0,0.0,48,0.00,,,0.00,WUHU216HW,2013-06-08 04:37:00,
2013-06-07 21:43:00,78.3,57.6,29.68,SSE,158,0.7,0.7,49,0.00,,,0.00,WUHU216HW,2013-06-08 04:43:00,
2013-06-07 21:48:00,77.9,57.2,29.68,SSE,158,0.0,0.7,49,0.00,,,0.00,WUHU216HW,2013-06-08 04:48:00,
2013-06-07 21:53:00,77.6,57.5,29.69,SSE,158,0.0,0.4,50,0.00,,,0.00,WUHU216HW,2013-06-08 04:53:00,
2013-06-07 21:58:00,77.2,57.7,29.69,SSE,158,0.0,0.0,51,0.00,,,0.00,WUHU216HW,2013-06-08 04:58:00,
2013-06-07 22:03:00,76.9,57.4,29.69,ESE,113,0.9,0.9,51,0.00,,,0.00,WUHU216HW,2013-06-08 05:03:00,
2013-06-07 22:08:00,76.5,57.6,29.69,SE,135,0.4,0.9,52,0.00,,,0.00,WUHU216HW,2013-06-08 05:08:00,
2013-06-07 22:13:00,76.3,58.0,29.69,SE,135,0.4,0.9,53,0.00,,,0.00,WUHU216HW,2013-06-08 05:13:00,
2013-06-07 22:18:00,76.1,58.2,29.69,ESE,113,0.0,0.9,54,0.00,,,0.00,WUHU216HW,2013-06-08 05:18:00,
2013-06-07 22:23:00,76.0,58.6,29.69,SE,135,0.0,0.7,55,0.00,,,0.00,WUHU216HW,2013-06-08 05:23:00,
2013-06-07 22:28:00,75.6,58.8,29.70,ESE,113,1.1,1.1,56,0.00,,,0.00,WUHU216HW,2013-06-08 05:28:00,
2013-06-07 22:33:00,75.2,58.5,29.70,SE,135,0.0,1.3,56,0.00,,,0.00,WUHU216HW,2013-06-08 05:33:00,
2013-06-07 22:38:00,74.9,58.6,29.69,SSE,158,2.0,2.0,57,0.00,,,0.00,WUHU216HW,2013-06-08 05:38:00,
2013-06-07 22:43:00,74.7,59.0,29.69,ESE,113,1.1,2.0,58,0.00,,,0.00,WUHU216HW,2013-06-08 05:43:00,
2013-06-07 22:48:00,74.5,59.2,29.69,ESE,113,0.7,1.8,59,0.00,,,0.00,WUHU216HW,2013-06-08 05:48:00,
2013-06-07 22:53:00,74.2,58.9,29.69,ESE,113,2.0,2.9,59,0.00,,,0.00,WUHU216HW,2013-06-08 05:53:00,
2013-06-07 22:58:00,73.8,59.0,29.69,ESE,113,2.5,2.9,60,0.00,,,0.00,WUHU216HW,2013-06-08 05:58:00,
2013-06-07 23:03:00,73.6,58.9,29.69,SE,135,0.9,2.5,60,0.00,,,0.00,WUHU216HW,2013-06-08 06:03:00,
2013-06-07 23:08:00,73.4,59.1,29.69,ESE,113,0.9,2.0,61,0.00,,,0.00,WUHU216HW,2013-06-08 06:08:00,
2013-06-07 23:13:00,73.3,59.0,29.68,ESE,113,0.0,1.8,61,0.00,,,0.00,WUHU216HW,2013-06-08 06:13:00,
2013-06-07 23:18:00,73.1,59.2,29.68,ESE,113,0.0,1.8,62,0.00,,,0.00,WUHU216HW,2013-06-08 06:18:00,
2013-06-07 23:24:00,72.9,59.0,29.68,ESE,113,0.0,0.0,62,0.00,,,0.00,WUHU216HW,2013-06-08 06:24:00,
2013-06-07 23:29:00,72.5,59.2,29.68,ESE,113,0.0,0.0,63,0.00,,,0.00,WUHU216HW,2013-06-08 06:29:00,
2013-06-07 23:34:00,72.2,58.9,29.68,ESE,113,0.0,0.0,63,0.00,,,0.00,WUHU216HW,2013-06-08 06:34:00,
2013-06-07 23:39:00,71.8,58.5,29.68,ESE,113,0.0,0.0,63,0.00,,,0.00,WUHU216HW,2013-06-08 06:39:00,
2013-06-07 23:44:00,71.5,58.6,29.68,ESE,113,0.0,0.0,64,0.00,,,0.00,WUHU216HW,2013-06-08 06:44:00,
2013-06-07 23:49:00,71.3,58.1,29.68,ESE,113,0.0,0.0,63,0.00,,,0.00,WUHU216HW,2013-06-08 06:49:00,
2013-06-07 23:54:00,70.9,58.2,29.69,ESE,113,0.0,0.0,64,0.00,,,0.00,WUHU216HW,2013-06-08 06:54:00,
2013-06-07 23:59:00,70.6,58.2,29.68,ESE,113,0.0,0.0,65,0.00,,,0.00,WUHU216HW,2013-06-08 06:59:00,